Dice, Kentucky
Current Conditions -  °F | °C
As of 8:53 AM on Monday 22 Dec 2014 (Local Time) from KJKL Reporting Station
Overcast Overcast  
Wind Chill: 41°   Ceiling: 3000
Heat Index: 41°   Visibility: 10mi
Dew Point: 33°   Wind: 0mph
Humidity: 73%   Direction: NA
Pressure: 30.02"   Gusts: NA
Location:  37.36°N, 83.23°W
Report Text: KJKL 221353Z AUTO 00000KT 10SM OVC030 05/01 A3002 RMK AO2 SLP171 T00500006
Loading
Personal Weather Stations






























Interactive Weather Map New forecast layout! Learn more

10-Day Weather Forecast

Advertisements
Track Severe Weather on mobile